sensor_id;sensor_type;location;lat;lon;timestamp;pressure;altitude;pressure_sealevel;temperature
16956;BMP180;8594;52.052;8.354;2023-07-30T00:00:50;99949.00;;;21.60
16956;BMP180;8594;52.052;8.354;2023-07-30T00:03:18;99951.00;;;21.60
16956;BMP180;8594;52.052;8.354;2023-07-30T00:05:52;99953.00;;;21.40
16956;BMP180;8594;52.052;8.354;2023-07-30T00:08:20;99951.00;;;21.50
16956;BMP180;8594;52.052;8.354;2023-07-30T00:10:47;99955.00;;;21.50
16956;BMP180;8594;52.052;8.354;2023-07-30T00:13:14;99954.00;;;21.50
16956;BMP180;8594;52.052;8.354;2023-07-30T00:15:41;99960.00;;;21.50
16956;BMP180;8594;52.052;8.354;2023-07-30T00:18:08;99969.00;;;21.40
16956;BMP180;8594;52.052;8.354;2023-07-30T00:20:36;99966.00;;;21.40
16956;BMP180;8594;52.052;8.354;2023-07-30T00:23:03;99969.00;;;21.40
16956;BMP180;8594;52.052;8.354;2023-07-30T00:25:30;99967.00;;;21.40
16956;BMP180;8594;52.052;8.354;2023-07-30T00:27:57;99966.00;;;21.30
16956;BMP180;8594;52.052;8.354;2023-07-30T00:30:24;99971.00;;;21.20
16956;BMP180;8594;52.052;8.354;2023-07-30T00:32:51;99970.00;;;21.30
16956;BMP180;8594;52.052;8.354;2023-07-30T00:35:18;99973.00;;;21.30
16956;BMP180;8594;52.052;8.354;2023-07-30T00:37:46;99981.00;;;21.40
16956;BMP180;8594;52.052;8.354;2023-07-30T00:40:13;99972.00;;;21.40
16956;BMP180;8594;52.052;8.354;2023-07-30T00:42:40;99969.00;;;21.30
16956;BMP180;8594;52.052;8.354;2023-07-30T00:45:09;99964.00;;;21.30
16956;BMP180;8594;52.052;8.354;2023-07-30T00:47:37;99968.00;;;21.30
16956;BMP180;8594;52.052;8.354;2023-07-30T00:50:07;99971.00;;;21.20
16956;BMP180;8594;52.052;8.354;2023-07-30T00:52:35;99975.00;;;20.80
16956;BMP180;8594;52.052;8.354;2023-07-30T00:55:07;99972.00;;;20.80
16956;BMP180;8594;52.052;8.354;2023-07-30T00:57:35;99972.00;;;20.50
16956;BMP180;8594;52.052;8.354;2023-07-30T01:00:03;99972.00;;;20.60
16956;BMP180;8594;52.052;8.354;2023-07-30T01:02:33;99970.00;;;21.20
16956;BMP180;8594;52.052;8.354;2023-07-30T01:05:02;99967.00;;;21.70
16956;BMP180;8594;52.052;8.354;2023-07-30T01:07:30;99966.00;;;21.80
16956;BMP180;8594;52.052;8.354;2023-07-30T01:09:57;99975.00;;;21.50
16956;BMP180;8594;52.052;8.354;2023-07-30T01:12:28;99979.00;;;21.50
16956;BMP180;8594;52.052;8.354;2023-07-30T01:14:56;99986.00;;;21.00
16956;BMP180;8594;52.052;8.354;2023-07-30T01:17:24;99994.00;;;20.60
16956;BMP180;8594;52.052;8.354;2023-07-30T01:19:53;99985.00;;;20.40
16956;BMP180;8594;52.052;8.354;2023-07-30T01:22:23;99989.00;;;20.00
16956;BMP180;8594;52.052;8.354;2023-07-30T01:24:50;99988.00;;;20.00
16956;BMP180;8594;52.052;8.354;2023-07-30T01:27:25;99987.00;;;20.00
16956;BMP180;8594;52.052;8.354;2023-07-30T01:29:57;99992.00;;;20.00
16956;BMP180;8594;52.052;8.354;2023-07-30T01:32:29;99997.00;;;20.10
16956;BMP180;8594;52.052;8.354;2023-07-30T01:34:59;99999.00;;;20.30
16956;BMP180;8594;52.052;8.354;2023-07-30T01:37:29;100007.00;;;19.90
16956;BMP180;8594;52.052;8.354;2023-07-30T01:39:57;100007.00;;;20.60
16956;BMP180;8594;52.052;8.354;2023-07-30T01:42:29;100008.00;;;20.30
16956;BMP180;8594;52.052;8.354;2023-07-30T01:44:56;100010.00;;;20.00
16956;BMP180;8594;52.052;8.354;2023-07-30T01:47:23;100013.00;;;20.10
16956;BMP180;8594;52.052;8.354;2023-07-30T01:49:49;100011.00;;;20.00
16956;BMP180;8594;52.052;8.354;2023-07-30T01:52:16;100012.00;;;20.00
16956;BMP180;8594;52.052;8.354;2023-07-30T01:54:45;100009.00;;;19.90
16956;BMP180;8594;52.052;8.354;2023-07-30T01:57:12;100012.00;;;20.10
16956;BMP180;8594;52.052;8.354;2023-07-30T01:59:39;100013.00;;;20.20
16956;BMP180;8594;52.052;8.354;2023-07-30T02:02:06;100000.00;;;20.10
16956;BMP180;8594;52.052;8.354;2023-07-30T02:04:33;100007.00;;;20.30
16956;BMP180;8594;52.052;8.354;2023-07-30T02:07:00;100008.00;;;20.20
16956;BMP180;8594;52.052;8.354;2023-07-30T02:09:27;100011.00;;;20.00
16956;BMP180;8594;52.052;8.354;2023-07-30T02:11:55;100010.00;;;19.90
16956;BMP180;8594;52.052;8.354;2023-07-30T02:14:22;100012.00;;;20.20
16956;BMP180;8594;52.052;8.354;2023-07-30T02:20:30;100011.00;;;19.90
16956;BMP180;8594;52.052;8.354;2023-07-30T02:22:57;100005.00;;;20.20
16956;BMP180;8594;52.052;8.354;2023-07-30T02:25:24;100018.00;;;19.90
16956;BMP180;8594;52.052;8.354;2023-07-30T02:27:52;100010.00;;;19.90
16956;BMP180;8594;52.052;8.354;2023-07-30T02:30:19;100008.00;;;20.00
16956;BMP180;8594;52.052;8.354;2023-07-30T02:32:46;100011.00;;;19.80
16956;BMP180;8594;52.052;8.354;2023-07-30T02:35:13;100018.00;;;20.10
16956;BMP180;8594;52.052;8.354;2023-07-30T02:37:40;100010.00;;;20.00
16956;BMP180;8594;52.052;8.354;2023-07-30T02:40:08;100016.00;;;20.00
16956;BMP180;8594;52.052;8.354;2023-07-30T02:42:35;100013.00;;;19.90
16956;BMP180;8594;52.052;8.354;2023-07-30T02:45:04;100016.00;;;20.00
16956;BMP180;8594;52.052;8.354;2023-07-30T02:47:31;100011.00;;;19.80
16956;BMP180;8594;52.052;8.354;2023-07-30T02:49:58;100021.00;;;19.90
16956;BMP180;8594;52.052;8.354;2023-07-30T02:52:25;100019.00;;;19.80
16956;BMP180;8594;52.052;8.354;2023-07-30T02:54:52;100011.00;;;20.00
16956;BMP180;8594;52.052;8.354;2023-07-30T02:57:19;100020.00;;;20.00
16956;BMP180;8594;52.052;8.354;2023-07-30T02:59:46;100019.00;;;19.90
16956;BMP180;8594;52.052;8.354;2023-07-30T03:02:14;100021.00;;;19.80
16956;BMP180;8594;52.052;8.354;2023-07-30T03:04:41;100018.00;;;19.50
16956;BMP180;8594;52.052;8.354;2023-07-30T03:07:09;100030.00;;;19.90
16956;BMP180;8594;52.052;8.354;2023-07-30T03:09:36;100027.00;;;19.90
16956;BMP180;8594;52.052;8.354;2023-07-30T03:12:04;100034.00;;;19.80
16956;BMP180;8594;52.052;8.354;2023-07-30T03:14:30;100034.00;;;19.50
16956;BMP180;8594;52.052;8.354;2023-07-30T03:16:57;100041.00;;;19.70
16956;BMP180;8594;52.052;8.354;2023-07-30T03:19:25;100028.00;;;19.60
16956;BMP180;8594;52.052;8.354;2023-07-30T03:21:52;100031.00;;;19.40
16956;BMP180;8594;52.052;8.354;2023-07-30T03:24:19;100038.00;;;19.30
16956;BMP180;8594;52.052;8.354;2023-07-30T03:26:46;100042.00;;;19.40
16956;BMP180;8594;52.052;8.354;2023-07-30T03:29:13;100034.00;;;19.40
16956;BMP180;8594;52.052;8.354;2023-07-30T03:31:40;100029.00;;;19.40
16956;BMP180;8594;52.052;8.354;2023-07-30T03:34:07;100036.00;;;19.30
16956;BMP180;8594;52.052;8.354;2023-07-30T03:36:35;100032.00;;;19.30
16956;BMP180;8594;52.052;8.354;2023-07-30T03:39:02;100033.00;;;19.00
16956;BMP180;8594;52.052;8.354;2023-07-30T03:41:29;100032.00;;;19.00
16956;BMP180;8594;52.052;8.354;2023-07-30T03:43:56;100034.00;;;19.20
16956;BMP180;8594;52.052;8.354;2023-07-30T03:46:23;100034.00;;;19.20
16956;BMP180;8594;52.052;8.354;2023-07-30T03:48:50;100035.00;;;19.10
16956;BMP180;8594;52.052;8.354;2023-07-30T03:51:16;100034.00;;;19.30
16956;BMP180;8594;52.052;8.354;2023-07-30T03:53:44;100030.00;;;19.60
16956;BMP180;8594;52.052;8.354;2023-07-30T03:56:11;100042.00;;;19.40
16956;BMP180;8594;52.052;8.354;2023-07-30T03:58:38;100038.00;;;19.50
16956;BMP180;8594;52.052;8.354;2023-07-30T04:01:05;100036.00;;;19.60
16956;BMP180;8594;52.052;8.354;2023-07-30T04:03:32;100038.00;;;19.20
16956;BMP180;8594;52.052;8.354;2023-07-30T04:05:59;100041.00;;;19.20
16956;BMP180;8594;52.052;8.354;2023-07-30T04:08:26;100039.00;;;19.20
16956;BMP180;8594;52.052;8.354;2023-07-30T04:10:54;100048.00;;;19.30
16956;BMP180;8594;52.052;8.354;2023-07-30T04:13:21;100047.00;;;19.30
16956;BMP180;8594;52.052;8.354;2023-07-30T04:15:48;100041.00;;;19.60
16956;BMP180;8594;52.052;8.354;2023-07-30T04:18:15;100047.00;;;19.30
16956;BMP180;8594;52.052;8.354;2023-07-30T04:20:42;100039.00;;;19.20
16956;BMP180;8594;52.052;8.354;2023-07-30T04:23:09;100041.00;;;19.40
16956;BMP180;8594;52.052;8.354;2023-07-30T04:25:36;100036.00;;;19.30
16956;BMP180;8594;52.052;8.354;2023-07-30T04:28:04;100044.00;;;19.20
16956;BMP180;8594;52.052;8.354;2023-07-30T04:30:31;100049.00;;;19.00
16956;BMP180;8594;52.052;8.354;2023-07-30T04:32:58;100049.00;;;19.00
16956;BMP180;8594;52.052;8.354;2023-07-30T04:35:25;100038.00;;;19.20
16956;BMP180;8594;52.052;8.354;2023-07-30T04:37:52;100043.00;;;19.10
16956;BMP180;8594;52.052;8.354;2023-07-30T04:40:19;100037.00;;;19.00
16956;BMP180;8594;52.052;8.354;2023-07-30T04:42:45;100046.00;;;19.00
16956;BMP180;8594;52.052;8.354;2023-07-30T04:45:14;100041.00;;;18.90
16956;BMP180;8594;52.052;8.354;2023-07-30T04:47:40;100050.00;;;19.10
16956;BMP180;8594;52.052;8.354;2023-07-30T04:50:08;100051.00;;;19.20
16956;BMP180;8594;52.052;8.354;2023-07-30T04:52:35;100040.00;;;19.60
16956;BMP180;8594;52.052;8.354;2023-07-30T04:55:01;100040.00;;;19.60
16956;BMP180;8594;52.052;8.354;2023-07-30T04:57:28;100046.00;;;19.70
16956;BMP180;8594;52.052;8.354;2023-07-30T04:59:55;100046.00;;;20.20
16956;BMP180;8594;52.052;8.354;2023-07-30T05:02:23;100043.00;;;20.60
16956;BMP180;8594;52.052;8.354;2023-07-30T05:04:50;100045.00;;;20.70
16956;BMP180;8594;52.052;8.354;2023-07-30T05:07:17;100051.00;;;20.60
16956;BMP180;8594;52.052;8.354;2023-07-30T05:09:44;100045.00;;;20.90
16956;BMP180;8594;52.052;8.354;2023-07-30T05:12:11;100047.00;;;21.00
16956;BMP180;8594;52.052;8.354;2023-07-30T05:14:38;100042.00;;;20.70
16956;BMP180;8594;52.052;8.354;2023-07-30T05:17:05;100053.00;;;20.60
16956;BMP180;8594;52.052;8.354;2023-07-30T05:19:34;100052.00;;;20.80
16956;BMP180;8594;52.052;8.354;2023-07-30T05:22:00;100043.00;;;20.60
16956;BMP180;8594;52.052;8.354;2023-07-30T05:24:27;100041.00;;;20.90
16956;BMP180;8594;52.052;8.354;2023-07-30T05:26:54;100049.00;;;21.20
16956;BMP180;8594;52.052;8.354;2023-07-30T05:29:21;100049.00;;;21.20
16956;BMP180;8594;52.052;8.354;2023-07-30T05:31:48;100049.00;;;21.20
16956;BMP180;8594;52.052;8.354;2023-07-30T05:34:15;100042.00;;;21.50
16956;BMP180;8594;52.052;8.354;2023-07-30T05:36:43;100047.00;;;21.30
16956;BMP180;8594;52.052;8.354;2023-07-30T05:39:10;100041.00;;;21.90
16956;BMP180;8594;52.052;8.354;2023-07-30T05:41:37;100051.00;;;21.90
16956;BMP180;8594;52.052;8.354;2023-07-30T05:44:04;100053.00;;;21.80
16956;BMP180;8594;52.052;8.354;2023-07-30T05:46:31;100050.00;;;21.90
16956;BMP180;8594;52.052;8.354;2023-07-30T05:48:57;100061.00;;;22.20
16956;BMP180;8594;52.052;8.354;2023-07-30T05:51:24;100059.00;;;21.60
16956;BMP180;8594;52.052;8.354;2023-07-30T05:53:52;100068.00;;;21.40
16956;BMP180;8594;52.052;8.354;2023-07-30T05:56:19;100061.00;;;21.80
16956;BMP180;8594;52.052;8.354;2023-07-30T05:58:46;100059.00;;;21.60
16956;BMP180;8594;52.052;8.354;2023-07-30T06:01:13;100070.00;;;21.20
16956;BMP180;8594;52.052;8.354;2023-07-30T06:03:40;100068.00;;;21.10
16956;BMP180;8594;52.052;8.354;2023-07-30T06:06:07;100068.00;;;21.20
16956;BMP180;8594;52.052;8.354;2023-07-30T06:08:33;100066.00;;;20.80
16956;BMP180;8594;52.052;8.354;2023-07-30T06:11:02;100081.00;;;20.60
16956;BMP180;8594;52.052;8.354;2023-07-30T06:13:29;100076.00;;;20.80
16956;BMP180;8594;52.052;8.354;2023-07-30T06:15:56;100081.00;;;21.00
16956;BMP180;8594;52.052;8.354;2023-07-30T06:18:23;100083.00;;;20.70
16956;BMP180;8594;52.052;8.354;2023-07-30T06:20:50;100087.00;;;20.30
16956;BMP180;8594;52.052;8.354;2023-07-30T06:23:17;100078.00;;;20.20
16956;BMP180;8594;52.052;8.354;2023-07-30T06:25:44;100082.00;;;20.20
16956;BMP180;8594;52.052;8.354;2023-07-30T06:28:12;100076.00;;;20.10
16956;BMP180;8594;52.052;8.354;2023-07-30T06:30:39;100080.00;;;20.30
16956;BMP180;8594;52.052;8.354;2023-07-30T06:33:06;100081.00;;;20.30
16956;BMP180;8594;52.052;8.354;2023-07-30T06:35:33;100085.00;;;20.30
16956;BMP180;8594;52.052;8.354;2023-07-30T06:38:00;100075.00;;;19.60
16956;BMP180;8594;52.052;8.354;2023-07-30T06:40:26;100091.00;;;20.20
16956;BMP180;8594;52.052;8.354;2023-07-30T06:42:53;100090.00;;;20.30
16956;BMP180;8594;52.052;8.354;2023-07-30T06:45:22;100090.00;;;20.00
16956;BMP180;8594;52.052;8.354;2023-07-30T06:47:48;100094.00;;;20.20
16956;BMP180;8594;52.052;8.354;2023-07-30T06:50:15;100098.00;;;20.20
16956;BMP180;8594;52.052;8.354;2023-07-30T06:52:42;100101.00;;;20.40
16956;BMP180;8594;52.052;8.354;2023-07-30T06:55:09;100100.00;;;20.30
16956;BMP180;8594;52.052;8.354;2023-07-30T06:57:36;100099.00;;;20.20
16956;BMP180;8594;52.052;8.354;2023-07-30T07:00:04;100100.00;;;20.00
16956;BMP180;8594;52.052;8.354;2023-07-30T07:02:33;100110.00;;;20.30
16956;BMP180;8594;52.052;8.354;2023-07-30T07:04:59;100104.00;;;20.40
16956;BMP180;8594;52.052;8.354;2023-07-30T07:07:26;100111.00;;;19.80
16956;BMP180;8594;52.052;8.354;2023-07-30T07:09:53;100106.00;;;20.00
16956;BMP180;8594;52.052;8.354;2023-07-30T07:12:20;100112.00;;;20.30
16956;BMP180;8594;52.052;8.354;2023-07-30T07:14:47;100108.00;;;20.30
16956;BMP180;8594;52.052;8.354;2023-07-30T07:17:13;100122.00;;;20.20
16956;BMP180;8594;52.052;8.354;2023-07-30T07:19:42;100114.00;;;19.90
16956;BMP180;8594;52.052;8.354;2023-07-30T07:22:09;100123.00;;;20.20
16956;BMP180;8594;52.052;8.354;2023-07-30T07:24:35;100115.00;;;20.20
16956;BMP180;8594;52.052;8.354;2023-07-30T07:27:03;100123.00;;;20.20
16956;BMP180;8594;52.052;8.354;2023-07-30T07:29:30;100126.00;;;19.50
16956;BMP180;8594;52.052;8.354;2023-07-30T07:31:57;100121.00;;;20.10
16956;BMP180;8594;52.052;8.354;2023-07-30T07:34:23;100119.00;;;20.00
16956;BMP180;8594;52.052;8.354;2023-07-30T07:36:52;100123.00;;;19.80
16956;BMP180;8594;52.052;8.354;2023-07-30T07:39:19;100128.00;;;20.10
16956;BMP180;8594;52.052;8.354;2023-07-30T07:41:46;100122.00;;;20.20
16956;BMP180;8594;52.052;8.354;2023-07-30T07:44:13;100125.00;;;20.10
16956;BMP180;8594;52.052;8.354;2023-07-30T07:46:40;100124.00;;;20.20
16956;BMP180;8594;52.052;8.354;2023-07-30T07:49:07;100116.00;;;19.70
16956;BMP180;8594;52.052;8.354;2023-07-30T07:51:34;100121.00;;;19.70
16956;BMP180;8594;52.052;8.354;2023-07-30T07:54:03;100124.00;;;19.90
16956;BMP180;8594;52.052;8.354;2023-07-30T07:56:30;100114.00;;;19.70
16956;BMP180;8594;52.052;8.354;2023-07-30T07:58:57;100121.00;;;19.80
16956;BMP180;8594;52.052;8.354;2023-07-30T08:01:25;100124.00;;;19.80
16956;BMP180;8594;52.052;8.354;2023-07-30T08:03:51;100126.00;;;20.00
16956;BMP180;8594;52.052;8.354;2023-07-30T08:06:18;100128.00;;;19.70
16956;BMP180;8594;52.052;8.354;2023-07-30T08:08:45;100122.00;;;19.70
16956;BMP180;8594;52.052;8.354;2023-07-30T08:11:13;100131.00;;;19.70
16956;BMP180;8594;52.052;8.354;2023-07-30T08:13:40;100123.00;;;19.60
16956;BMP180;8594;52.052;8.354;2023-07-30T08:16:07;100130.00;;;20.10
16956;BMP180;8594;52.052;8.354;2023-07-30T08:18:34;100119.00;;;19.90
16956;BMP180;8594;52.052;8.354;2023-07-30T08:21:01;100121.00;;;20.20
16956;BMP180;8594;52.052;8.354;2023-07-30T08:23:28;100121.00;;;20.20
16956;BMP180;8594;52.052;8.354;2023-07-30T08:25:55;100124.00;;;20.10
16956;BMP180;8594;52.052;8.354;2023-07-30T08:28:23;100120.00;;;20.00
16956;BMP180;8594;52.052;8.354;2023-07-30T08:30:50;100119.00;;;19.60
16956;BMP180;8594;52.052;8.354;2023-07-30T08:33:17;100122.00;;;19.90
16956;BMP180;8594;52.052;8.354;2023-07-30T08:35:44;100127.00;;;20.20
16956;BMP180;8594;52.052;8.354;2023-07-30T08:38:11;100120.00;;;20.00
16956;BMP180;8594;52.052;8.354;2023-07-30T08:40:38;100123.00;;;19.90
16956;BMP180;8594;52.052;8.354;2023-07-30T08:43:04;100127.00;;;19.90
16956;BMP180;8594;52.052;8.354;2023-07-30T08:45:33;100130.00;;;20.00
16956;BMP180;8594;52.052;8.354;2023-07-30T08:48:00;100143.00;;;20.50
16956;BMP180;8594;52.052;8.354;2023-07-30T08:50:28;100135.00;;;20.20
16956;BMP180;8594;52.052;8.354;2023-07-30T08:52:56;100137.00;;;19.90
16956;BMP180;8594;52.052;8.354;2023-07-30T08:55:25;100132.00;;;19.80
16956;BMP180;8594;52.052;8.354;2023-07-30T08:57:55;100134.00;;;20.10
16956;BMP180;8594;52.052;8.354;2023-07-30T09:00:25;100133.00;;;19.90
16956;BMP180;8594;52.052;8.354;2023-07-30T09:02:59;100136.00;;;19.90
16956;BMP180;8594;52.052;8.354;2023-07-30T09:05:28;100127.00;;;20.10
16956;BMP180;8594;52.052;8.354;2023-07-30T09:07:55;100142.00;;;20.30
16956;BMP180;8594;52.052;8.354;2023-07-30T09:10:22;100132.00;;;20.30
16956;BMP180;8594;52.052;8.354;2023-07-30T09:12:53;100132.00;;;19.80
16956;BMP180;8594;52.052;8.354;2023-07-30T09:15:30;100135.00;;;20.00
16956;BMP180;8594;52.052;8.354;2023-07-30T09:18:00;100141.00;;;20.30
16956;BMP180;8594;52.052;8.354;2023-07-30T09:20:27;100143.00;;;20.30
16956;BMP180;8594;52.052;8.354;2023-07-30T09:22:57;100136.00;;;20.00
16956;BMP180;8594;52.052;8.354;2023-07-30T09:25:24;100148.00;;;20.20
16956;BMP180;8594;52.052;8.354;2023-07-30T09:27:51;100146.00;;;20.00
16956;BMP180;8594;52.052;8.354;2023-07-30T09:30:23;100152.00;;;20.30
16956;BMP180;8594;52.052;8.354;2023-07-30T09:32:52;100154.00;;;20.30
16956;BMP180;8594;52.052;8.354;2023-07-30T09:35:22;100160.00;;;20.60
16956;BMP180;8594;52.052;8.354;2023-07-30T09:37:57;100159.00;;;20.20
16956;BMP180;8594;52.052;8.354;2023-07-30T09:40:32;100167.00;;;20.70
16956;BMP180;8594;52.052;8.354;2023-07-30T09:42:59;100158.00;;;20.60
16956;BMP180;8594;52.052;8.354;2023-07-30T09:45:27;100161.00;;;20.50
16956;BMP180;8594;52.052;8.354;2023-07-30T09:47:55;100167.00;;;20.60
16956;BMP180;8594;52.052;8.354;2023-07-30T09:50:25;100167.00;;;20.60
16956;BMP180;8594;52.052;8.354;2023-07-30T09:52:52;100167.00;;;20.70
16956;BMP180;8594;52.052;8.354;2023-07-30T09:55:21;100164.00;;;20.70
16956;BMP180;8594;52.052;8.354;2023-07-30T09:57:48;100175.00;;;20.90
16956;BMP180;8594;52.052;8.354;2023-07-30T10:00:15;100173.00;;;21.20
16956;BMP180;8594;52.052;8.354;2023-07-30T10:02:46;100175.00;;;21.10
16956;BMP180;8594;52.052;8.354;2023-07-30T10:05:17;100174.00;;;21.30
16956;BMP180;8594;52.052;8.354;2023-07-30T10:07:53;100172.00;;;21.30
16956;BMP180;8594;52.052;8.354;2023-07-30T10:10:24;100167.00;;;21.00
16956;BMP180;8594;52.052;8.354;2023-07-30T10:12:52;100182.00;;;21.30
16956;BMP180;8594;52.052;8.354;2023-07-30T10:15:22;100177.00;;;21.20
16956;BMP180;8594;52.052;8.354;2023-07-30T10:17:50;100171.00;;;21.40
16956;BMP180;8594;52.052;8.354;2023-07-30T10:20:23;100168.00;;;21.40
16956;BMP180;8594;52.052;8.354;2023-07-30T10:22:57;100176.00;;;21.50
16956;BMP180;8594;52.052;8.354;2023-07-30T10:25:29;100178.00;;;21.20
16956;BMP180;8594;52.052;8.354;2023-07-30T10:27:58;100169.00;;;21.20
16956;BMP180;8594;52.052;8.354;2023-07-30T10:30:31;100175.00;;;21.70
16956;BMP180;8594;52.052;8.354;2023-07-30T10:33:01;100175.00;;;21.60
16956;BMP180;8594;52.052;8.354;2023-07-30T10:35:37;100168.00;;;21.80
16956;BMP180;8594;52.052;8.354;2023-07-30T10:38:17;100172.00;;;21.90
16956;BMP180;8594;52.052;8.354;2023-07-30T10:41:08;100169.00;;;22.00
16956;BMP180;8594;52.052;8.354;2023-07-30T10:43:38;100167.00;;;22.00
16956;BMP180;8594;52.052;8.354;2023-07-30T10:46:06;100167.00;;;21.40
16956;BMP180;8594;52.052;8.354;2023-07-30T10:48:35;100157.00;;;21.80
16956;BMP180;8594;52.052;8.354;2023-07-30T10:51:04;100159.00;;;21.90
16956;BMP180;8594;52.052;8.354;2023-07-30T10:53:33;100161.00;;;22.30
16956;BMP180;8594;52.052;8.354;2023-07-30T10:56:03;100154.00;;;22.40
16956;BMP180;8594;52.052;8.354;2023-07-30T10:58:31;100148.00;;;23.30
16956;BMP180;8594;52.052;8.354;2023-07-30T11:01:01;100153.00;;;23.50
16956;BMP180;8594;52.052;8.354;2023-07-30T11:03:29;100154.00;;;24.10
16956;BMP180;8594;52.052;8.354;2023-07-30T11:05:57;100156.00;;;24.10
16956;BMP180;8594;52.052;8.354;2023-07-30T11:08:35;100156.00;;;24.10
16956;BMP180;8594;52.052;8.354;2023-07-30T11:11:02;100153.00;;;24.30
16956;BMP180;8594;52.052;8.354;2023-07-30T11:13:30;100154.00;;;23.70
16956;BMP180;8594;52.052;8.354;2023-07-30T11:16:01;100154.00;;;24.50
16956;BMP180;8594;52.052;8.354;2023-07-30T11:18:31;100154.00;;;24.70
16956;BMP180;8594;52.052;8.354;2023-07-30T11:21:03;100150.00;;;24.40
16956;BMP180;8594;52.052;8.354;2023-07-30T11:23:30;100154.00;;;24.40
16956;BMP180;8594;52.052;8.354;2023-07-30T11:26:00;100144.00;;;25.30
16956;BMP180;8594;52.052;8.354;2023-07-30T11:28:28;100148.00;;;24.60
16956;BMP180;8594;52.052;8.354;2023-07-30T11:30:58;100149.00;;;25.00
16956;BMP180;8594;52.052;8.354;2023-07-30T11:33:26;100147.00;;;24.80
16956;BMP180;8594;52.052;8.354;2023-07-30T11:35:54;100134.00;;;24.90
16956;BMP180;8594;52.052;8.354;2023-07-30T11:38:22;100139.00;;;24.50
16956;BMP180;8594;52.052;8.354;2023-07-30T11:40:50;100147.00;;;23.90
16956;BMP180;8594;52.052;8.354;2023-07-30T11:43:19;100141.00;;;23.20
16956;BMP180;8594;52.052;8.354;2023-07-30T11:45:46;100140.00;;;23.90
16956;BMP180;8594;52.052;8.354;2023-07-30T11:48:13;100144.00;;;23.40
16956;BMP180;8594;52.052;8.354;2023-07-30T11:50:48;100148.00;;;23.80
16956;BMP180;8594;52.052;8.354;2023-07-30T11:53:16;100147.00;;;23.80
16956;BMP180;8594;52.052;8.354;2023-07-30T11:55:45;100153.00;;;23.70
16956;BMP180;8594;52.052;8.354;2023-07-30T11:58:12;100157.00;;;23.60
16956;BMP180;8594;52.052;8.354;2023-07-30T12:00:43;100159.00;;;23.60
16956;BMP180;8594;52.052;8.354;2023-07-30T12:03:11;100163.00;;;23.50
16956;BMP180;8594;52.052;8.354;2023-07-30T12:05:39;100157.00;;;23.60
16956;BMP180;8594;52.052;8.354;2023-07-30T12:08:16;100158.00;;;24.00
16956;BMP180;8594;52.052;8.354;2023-07-30T12:10:47;100159.00;;;23.50
16956;BMP180;8594;52.052;8.354;2023-07-30T12:13:19;100167.00;;;23.70
16956;BMP180;8594;52.052;8.354;2023-07-30T12:15:52;100174.00;;;24.40
16956;BMP180;8594;52.052;8.354;2023-07-30T12:18:22;100172.00;;;24.80
16956;BMP180;8594;52.052;8.354;2023-07-30T12:20:50;100171.00;;;24.80
16956;BMP180;8594;52.052;8.354;2023-07-30T12:23:17;100174.00;;;24.10
16956;BMP180;8594;52.052;8.354;2023-07-30T12:25:45;100158.00;;;23.70
16956;BMP180;8594;52.052;8.354;2023-07-30T12:28:12;100176.00;;;23.70
16956;BMP180;8594;52.052;8.354;2023-07-30T12:30:39;100172.00;;;23.60
16956;BMP180;8594;52.052;8.354;2023-07-30T12:33:07;100167.00;;;23.60
16956;BMP180;8594;52.052;8.354;2023-07-30T12:35:34;100168.00;;;23.40
16956;BMP180;8594;52.052;8.354;2023-07-30T12:38:01;100167.00;;;24.00
16956;BMP180;8594;52.052;8.354;2023-07-30T12:40:28;100168.00;;;24.40
16956;BMP180;8594;52.052;8.354;2023-07-30T12:43:01;100172.00;;;24.00
16956;BMP180;8594;52.052;8.354;2023-07-30T12:45:29;100173.00;;;24.30
16956;BMP180;8594;52.052;8.354;2023-07-30T12:47:57;100168.00;;;24.10
16956;BMP180;8594;52.052;8.354;2023-07-30T12:50:25;100174.00;;;24.20
16956;BMP180;8594;52.052;8.354;2023-07-30T12:52:52;100165.00;;;23.70
16956;BMP180;8594;52.052;8.354;2023-07-30T12:55:19;100177.00;;;23.70
16956;BMP180;8594;52.052;8.354;2023-07-30T12:57:46;100170.00;;;24.20
16956;BMP180;8594;52.052;8.354;2023-07-30T13:00:15;100184.00;;;24.20
16956;BMP180;8594;52.052;8.354;2023-07-30T13:02:43;100186.00;;;23.90
16956;BMP180;8594;52.052;8.354;2023-07-30T13:05:10;100177.00;;;23.80
16956;BMP180;8594;52.052;8.354;2023-07-30T13:07:40;100182.00;;;23.90
16956;BMP180;8594;52.052;8.354;2023-07-30T13:10:08;100182.00;;;23.70
16956;BMP180;8594;52.052;8.354;2023-07-30T13:12:36;100195.00;;;23.40
16956;BMP180;8594;52.052;8.354;2023-07-30T13:15:03;100196.00;;;23.50
16956;BMP180;8594;52.052;8.354;2023-07-30T13:17:31;100199.00;;;23.30
16956;BMP180;8594;52.052;8.354;2023-07-30T13:19:58;100213.00;;;23.10
16956;BMP180;8594;52.052;8.354;2023-07-30T13:22:25;100219.00;;;23.10
16956;BMP180;8594;52.052;8.354;2023-07-30T13:24:53;100215.00;;;23.00
16956;BMP180;8594;52.052;8.354;2023-07-30T13:27:20;100213.00;;;22.70
16956;BMP180;8594;52.052;8.354;2023-07-30T13:29:47;100209.00;;;22.90
16956;BMP180;8594;52.052;8.354;2023-07-30T13:32:14;100215.00;;;23.30
16956;BMP180;8594;52.052;8.354;2023-07-30T13:34:41;100223.00;;;22.80
16956;BMP180;8594;52.052;8.354;2023-07-30T13:37:08;100194.00;;;21.90
16956;BMP180;8594;52.052;8.354;2023-07-30T13:39:35;100198.00;;;22.10
16956;BMP180;8594;52.052;8.354;2023-07-30T13:42:04;100201.00;;;21.80
16956;BMP180;8594;52.052;8.354;2023-07-30T13:44:31;100184.00;;;21.90
16956;BMP180;8594;52.052;8.354;2023-07-30T13:46:58;100195.00;;;21.50
16956;BMP180;8594;52.052;8.354;2023-07-30T13:49:24;100210.00;;;21.60
16956;BMP180;8594;52.052;8.354;2023-07-30T13:51:51;100205.00;;;21.50
16956;BMP180;8594;52.052;8.354;2023-07-30T13:54:18;100206.00;;;21.80
16956;BMP180;8594;52.052;8.354;2023-07-30T13:56:45;100210.00;;;22.00
16956;BMP180;8594;52.052;8.354;2023-07-30T13:59:13;100202.00;;;22.00
16956;BMP180;8594;52.052;8.354;2023-07-30T14:01:40;100205.00;;;21.90
16956;BMP180;8594;52.052;8.354;2023-07-30T14:04:07;100200.00;;;21.90
16956;BMP180;8594;52.052;8.354;2023-07-30T14:06:34;100206.00;;;22.40
16956;BMP180;8594;52.052;8.354;2023-07-30T14:09:02;100208.00;;;22.10
16956;BMP180;8594;52.052;8.354;2023-07-30T14:11:30;100205.00;;;22.20
16956;BMP180;8594;52.052;8.354;2023-07-30T14:13:57;100210.00;;;21.90
16956;BMP180;8594;52.052;8.354;2023-07-30T14:16:26;100201.00;;;22.90